Saturday, November 18, 2017, 1:30 AM EST
Back to Local

KWVL, Waterville, Waterville Robert Lafleur Airport

Location: Waterville, ME, United States Lat: 44.533
Local Time: 1:30 AM EST ( 6:30 GMT) Lon: -69.683
Time Zone: US/Eastern Elev: 334 ft

Show me the last for .
Show Decoded

2017-11-18 00:56 METAR KWVL 180556Z AUTO 28005KT 10SM CLR M04/M08 A2986 RMK AO2 SLP144 T10441083
                 11022 21044 50007 FZRANO =
2017-11-17 23:56 METAR KWVL 180456Z AUTO 27004KT 10SM CLR M03/M09 A2987 RMK AO2 SLP145 T10281094
                 400441028 FZRANO =
2017-11-17 22:56 METAR KWVL 180356Z AUTO 00000KT 10SM CLR M03/M09 A2986 RMK AO2 SLP144 T10281089
                 FZRANO =
2017-11-17 21:56 METAR KWVL 180256Z AUTO VRB04KT 10SM CLR M03/M08 A2984 RMK AO2 SLP136 T10281083
                 50004 FZRANO =
2017-11-17 20:56 METAR KWVL 180156Z AUTO 25005KT 10SM CLR M03/M08 A2985 RMK AO2 SLP139 T10281083
                 FZRANO =
2017-11-17 19:56 METAR KWVL 180056Z AUTO 31005KT 10SM CLR M02/M08 A2984 RMK AO2 SLP137 T10221083
                 FZRANO =
2017-11-17 18:56 METAR KWVL 172356Z AUTO 27010G16KT 10SM CLR M02/M08 A2983 RMK AO2 SLP132
                 T10221083 10028 21022 51016 FZRANO =
2017-11-17 17:56 METAR KWVL 172256Z AUTO 28007KT 10SM CLR M02/M07 A2982 RMK AO2 SLP128 T10221072
                 FZRANO =
2017-11-17 16:56 METAR KWVL 172156Z AUTO 32010G18KT 10SM FEW038 M02/M07 A2981 RMK AO2 SLP128
                 T10171072 FZRANO =
2017-11-17 15:56 METAR KWVL 172056Z AUTO 31012G21KT 270V340 10SM CLR 00/M07 A2978 RMK AO2 SLP116
                 T00001067 53024 FZRANO =
2017-11-17 14:56 METAR KWVL 171956Z AUTO 30015G23KT 10SM CLR 02/M07 A2975 RMK AO2 SLP104
                 T00171067 FZRANO =
2017-11-17 13:56 METAR KWVL 171856Z AUTO 31015G21KT 10SM SCT036 02/M06 A2972 RMK AO2 SLP092
                 T00221056 FZRANO =
2017-11-17 12:56 METAR KWVL 171756Z AUTO 29013G21KT 10SM OVC032 03/M04 A2971 RMK AO2 PK WND
                 25027/1659 SLP091 T00281044 10044 20022 53009 =
2017-11-17 11:56 METAR KWVL 171656Z AUTO 29016G26KT 10SM OVC034 03/M04 A2970 RMK AO2 PK WND
                 28026/1648 SLP087 T00331039 =
2017-11-17 10:56 METAR KWVL 171556Z AUTO 29013G18KT 10SM OVC032 03/M03 A2969 RMK AO2 SLP085
                 T00281028 =
2017-11-17 09:56 METAR KWVL 171456Z AUTO 30010G23KT 270V330 10SM SCT038 03/M03 A2968 RMK AO2
                 SLP082 T00331028 51023 =
2017-11-17 08:56 METAR KWVL 171356Z AUTO 30013G19KT 10SM BKN050 03/M03 A2967 RMK AO2 SLP077
                 T00331028 =
2017-11-17 07:56 METAR KWVL 171256Z AUTO 30013G21KT 10SM SCT050 03/01 A2964 RMK AO2 SLP068
                 T00330011 =
2017-11-17 06:56 METAR KWVL 171156Z AUTO 30012KT 10SM CLR 02/02 A2962 RMK AO2 SLP058 70068
                 T00220017 10022 21006 53019 FZRANO =
2017-11-17 05:56 METAR KWVL 171056Z AUTO 28009G17KT 10SM CLR 02/01 A2958 RMK AO2 SLP048 T00170006
                 FZRANO =
2017-11-17 04:56 METAR KWVL 170956Z AUTO 26005KT 10SM CLR 00/00 A2957 RMK AO2 SLP043 T00000000
                 FZRANO =
2017-11-17 04:35 METAR KWVL 170935Z AUTO 26005KT 5SM BR CLR M01/M01 A2957 RMK AO2 FZRANO =
2017-11-17 04:32 METAR KWVL 170932Z AUTO 25005KT 1 1/4SM BR CLR M01/M01 A2956 RMK AO2 FZRANO =
2017-11-17 04:30 METAR KWVL 170930Z AUTO 25005KT 3/4SM BR CLR M01/M01 A2956 RMK AO2 FZRANO =
2017-11-17 04:22 METAR KWVL 170922Z AUTO 22004KT 1/4SM FZFG CLR M01/M01 A2956 RMK AO2 FZRANO =
2017-11-17 04:17 METAR KWVL 170917Z AUTO 21003KT 3/4SM BR CLR M01/M01 A2956 RMK AO2 FZRANO =
2017-11-17 04:15 METAR KWVL 170915Z AUTO 21003KT 1 1/4SM BR CLR M01/M01 A2956 RMK AO2 FZRANO =
2017-11-17 03:56 METAR KWVL 170856Z AUTO 21003KT 7SM CLR M01/M01 A2956 RMK AO2 SLP040 T10061006
                 53005 FZRANO =
2017-11-17 02:56 METAR KWVL 170756Z AUTO 24005KT 7SM CLR 01/01 A2955 RMK AO2 SLP036 T00110006
                 FZRANO =
2017-11-17 01:56 METAR KWVL 170656Z AUTO 28006KT 10SM FEW002 BKN036 02/01 A2954 RMK AO2 SLP033
                 T00170011 FZRANO =
2017-11-17 01:53 METAR KWVL 170653Z AUTO 27005KT 10SM SCT002 BKN036 02/01 A2954 RMK AO2 FZRANO =

Support USWX by starting your Amazon purchase here.